sensor_id;sensor_type;location;lat;lon;timestamp;P1;durP1;ratioP1;P2;durP2;ratioP2
67372;SDS011;54257;54.496;18.412;2023-02-26T00:01:38;1.80;;;1.10;;
67372;SDS011;54257;54.496;18.412;2023-02-26T00:04:05;1.10;;;0.90;;
67372;SDS011;54257;54.496;18.412;2023-02-26T00:06:34;1.80;;;0.80;;
67372;SDS011;54257;54.496;18.412;2023-02-26T00:09:03;1.30;;;0.80;;
67372;SDS011;54257;54.496;18.412;2023-02-26T00:11:31;1.00;;;0.60;;
67372;SDS011;54257;54.496;18.412;2023-02-26T00:13:59;0.80;;;0.70;;
67372;SDS011;54257;54.496;18.412;2023-02-26T00:16:33;1.10;;;0.50;;
67372;SDS011;54257;54.496;18.412;2023-02-26T00:19:02;0.70;;;0.40;;
67372;SDS011;54257;54.496;18.412;2023-02-26T00:21:31;0.60;;;0.60;;
67372;SDS011;54257;54.496;18.412;2023-02-26T00:23:59;2.00;;;0.70;;
67372;SDS011;54257;54.496;18.412;2023-02-26T00:26:28;0.80;;;0.80;;
67372;SDS011;54257;54.496;18.412;2023-02-26T00:32:23;4.80;;;1.80;;
67372;SDS011;54257;54.496;18.412;2023-02-26T00:34:50;1.90;;;1.00;;
67372;SDS011;54257;54.496;18.412;2023-02-26T00:37:41;1.60;;;0.90;;
67372;SDS011;54257;54.496;18.412;2023-02-26T00:42:39;1.20;;;0.90;;
67372;SDS011;54257;54.496;18.412;2023-02-26T00:45:07;2.50;;;1.30;;
67372;SDS011;54257;54.496;18.412;2023-02-26T00:47:43;2.10;;;1.30;;
67372;SDS011;54257;54.496;18.412;2023-02-26T00:50:17;3.40;;;1.90;;
67372;SDS011;54257;54.496;18.412;2023-02-26T00:52:56;1.40;;;1.30;;
67372;SDS011;54257;54.496;18.412;2023-02-26T00:55:34;1.60;;;1.00;;
67372;SDS011;54257;54.496;18.412;2023-02-26T00:58:01;2.50;;;1.00;;
67372;SDS011;54257;54.496;18.412;2023-02-26T01:00:28;1.30;;;0.80;;
67372;SDS011;54257;54.496;18.412;2023-02-26T01:02:55;3.50;;;1.40;;
67372;SDS011;54257;54.496;18.412;2023-02-26T01:05:23;1.50;;;0.90;;
67372;SDS011;54257;54.496;18.412;2023-02-26T01:10:23;2.40;;;1.20;;
67372;SDS011;54257;54.496;18.412;2023-02-26T01:12:50;2.30;;;1.10;;
67372;SDS011;54257;54.496;18.412;2023-02-26T01:15:17;1.40;;;1.20;;
67372;SDS011;54257;54.496;18.412;2023-02-26T01:17:55;0.80;;;0.80;;
67372;SDS011;54257;54.496;18.412;2023-02-26T01:20:28;1.60;;;1.00;;
67372;SDS011;54257;54.496;18.412;2023-02-26T01:23:05;2.50;;;1.60;;
67372;SDS011;54257;54.496;18.412;2023-02-26T01:25:43;2.00;;;1.00;;
67372;SDS011;54257;54.496;18.412;2023-02-26T01:28:12;3.00;;;2.10;;
67372;SDS011;54257;54.496;18.412;2023-02-26T01:30:40;1.10;;;0.60;;
67372;SDS011;54257;54.496;18.412;2023-02-26T01:33:16;1.20;;;0.40;;
67372;SDS011;54257;54.496;18.412;2023-02-26T01:36:06;0.40;;;0.40;;
67372;SDS011;54257;54.496;18.412;2023-02-26T01:41:53;0.60;;;0.50;;
67372;SDS011;54257;54.496;18.412;2023-02-26T01:44:24;0.80;;;0.80;;
67372;SDS011;54257;54.496;18.412;2023-02-26T01:50:10;2.20;;;0.80;;
67372;SDS011;54257;54.496;18.412;2023-02-26T01:55:14;0.70;;;0.70;;
67372;SDS011;54257;54.496;18.412;2023-02-26T01:57:46;1.80;;;1.00;;
67372;SDS011;54257;54.496;18.412;2023-02-26T02:00:15;1.30;;;0.60;;
67372;SDS011;54257;54.496;18.412;2023-02-26T02:02:42;0.90;;;0.70;;
67372;SDS011;54257;54.496;18.412;2023-02-26T02:05:11;1.20;;;0.60;;
67372;SDS011;54257;54.496;18.412;2023-02-26T02:07:44;2.00;;;0.80;;
67372;SDS011;54257;54.496;18.412;2023-02-26T02:10:11;1.20;;;0.60;;
67372;SDS011;54257;54.496;18.412;2023-02-26T02:13:40;1.90;;;0.60;;
67372;SDS011;54257;54.496;18.412;2023-02-26T02:16:00;0.70;;;0.50;;
67372;SDS011;54257;54.496;18.412;2023-02-26T02:24:12;1.40;;;0.70;;
67372;SDS011;54257;54.496;18.412;2023-02-26T02:29:30;0.80;;;0.70;;
67372;SDS011;54257;54.496;18.412;2023-02-26T02:32:13;1.30;;;0.80;;
67372;SDS011;54257;54.496;18.412;2023-02-26T02:34:51;1.00;;;0.60;;
67372;SDS011;54257;54.496;18.412;2023-02-26T02:39:57;3.20;;;0.50;;
67372;SDS011;54257;54.496;18.412;2023-02-26T02:42:34;2.90;;;0.80;;
67372;SDS011;54257;54.496;18.412;2023-02-26T02:45:10;1.70;;;0.50;;
67372;SDS011;54257;54.496;18.412;2023-02-26T02:48:02;1.20;;;1.10;;
67372;SDS011;54257;54.496;18.412;2023-02-26T02:50:46;1.90;;;0.50;;
67372;SDS011;54257;54.496;18.412;2023-02-26T02:53:20;1.00;;;0.60;;
67372;SDS011;54257;54.496;18.412;2023-02-26T02:55:57;1.80;;;0.70;;
67372;SDS011;54257;54.496;18.412;2023-02-26T02:58:30;1.90;;;0.70;;
67372;SDS011;54257;54.496;18.412;2023-02-26T03:01:04;2.70;;;0.80;;
67372;SDS011;54257;54.496;18.412;2023-02-26T03:06:31;1.30;;;1.10;;
67372;SDS011;54257;54.496;18.412;2023-02-26T03:08:59;2.60;;;0.80;;
67372;SDS011;54257;54.496;18.412;2023-02-26T03:11:27;2.60;;;0.90;;
67372;SDS011;54257;54.496;18.412;2023-02-26T03:13:54;2.60;;;1.20;;
67372;SDS011;54257;54.496;18.412;2023-02-26T03:16:28;3.50;;;1.10;;
67372;SDS011;54257;54.496;18.412;2023-02-26T03:19:29;3.20;;;1.10;;
67372;SDS011;54257;54.496;18.412;2023-02-26T03:22:38;2.60;;;1.10;;
67372;SDS011;54257;54.496;18.412;2023-02-26T03:33:58;2.80;;;1.00;;
67372;SDS011;54257;54.496;18.412;2023-02-26T03:36:44;2.60;;;1.20;;
67372;SDS011;54257;54.496;18.412;2023-02-26T03:39:23;1.90;;;0.90;;
67372;SDS011;54257;54.496;18.412;2023-02-26T03:42:07;2.40;;;1.00;;
67372;SDS011;54257;54.496;18.412;2023-02-26T03:44:43;1.30;;;0.90;;
67372;SDS011;54257;54.496;18.412;2023-02-26T03:47:15;3.10;;;1.00;;
67372;SDS011;54257;54.496;18.412;2023-02-26T03:49:51;1.50;;;1.30;;
67372;SDS011;54257;54.496;18.412;2023-02-26T03:52:39;1.50;;;0.90;;
67372;SDS011;54257;54.496;18.412;2023-02-26T03:57:38;4.00;;;1.00;;
67372;SDS011;54257;54.496;18.412;2023-02-26T04:00:06;2.80;;;0.90;;
67372;SDS011;54257;54.496;18.412;2023-02-26T04:05:14;1.80;;;1.20;;
67372;SDS011;54257;54.496;18.412;2023-02-26T04:07:44;5.50;;;1.30;;
67372;SDS011;54257;54.496;18.412;2023-02-26T04:10:13;5.10;;;1.10;;
67372;SDS011;54257;54.496;18.412;2023-02-26T04:12:44;3.90;;;1.60;;
67372;SDS011;54257;54.496;18.412;2023-02-26T04:15:11;4.30;;;1.30;;
67372;SDS011;54257;54.496;18.412;2023-02-26T04:17:38;5.10;;;1.20;;
67372;SDS011;54257;54.496;18.412;2023-02-26T04:20:05;2.50;;;1.20;;
67372;SDS011;54257;54.496;18.412;2023-02-26T04:22:37;1.90;;;1.40;;
67372;SDS011;54257;54.496;18.412;2023-02-26T04:25:04;3.30;;;1.00;;
67372;SDS011;54257;54.496;18.412;2023-02-26T04:27:31;1.70;;;1.30;;
67372;SDS011;54257;54.496;18.412;2023-02-26T04:29:58;4.20;;;1.30;;
67372;SDS011;54257;54.496;18.412;2023-02-26T04:32:25;5.10;;;1.30;;
67372;SDS011;54257;54.496;18.412;2023-02-26T04:34:52;3.50;;;1.30;;
67372;SDS011;54257;54.496;18.412;2023-02-26T04:37:19;1.90;;;1.30;;
67372;SDS011;54257;54.496;18.412;2023-02-26T04:39:46;2.70;;;1.20;;
67372;SDS011;54257;54.496;18.412;2023-02-26T04:42:12;3.00;;;1.10;;
67372;SDS011;54257;54.496;18.412;2023-02-26T04:44:39;3.90;;;1.40;;
67372;SDS011;54257;54.496;18.412;2023-02-26T04:47:06;5.60;;;1.30;;
67372;SDS011;54257;54.496;18.412;2023-02-26T04:49:33;3.30;;;1.00;;
67372;SDS011;54257;54.496;18.412;2023-02-26T04:52:00;1.40;;;1.00;;
67372;SDS011;54257;54.496;18.412;2023-02-26T04:54:27;2.70;;;1.10;;
67372;SDS011;54257;54.496;18.412;2023-02-26T04:56:54;3.10;;;1.30;;
67372;SDS011;54257;54.496;18.412;2023-02-26T04:59:21;2.30;;;1.00;;
67372;SDS011;54257;54.496;18.412;2023-02-26T05:01:48;3.80;;;1.10;;
67372;SDS011;54257;54.496;18.412;2023-02-26T05:04:15;3.90;;;1.30;;
67372;SDS011;54257;54.496;18.412;2023-02-26T05:06:42;2.10;;;1.10;;
67372;SDS011;54257;54.496;18.412;2023-02-26T05:09:09;2.10;;;0.90;;
67372;SDS011;54257;54.496;18.412;2023-02-26T05:11:36;4.90;;;1.40;;
67372;SDS011;54257;54.496;18.412;2023-02-26T05:14:03;4.50;;;1.40;;
67372;SDS011;54257;54.496;18.412;2023-02-26T05:16:30;3.10;;;1.20;;
67372;SDS011;54257;54.496;18.412;2023-02-26T05:18:56;4.00;;;1.60;;
67372;SDS011;54257;54.496;18.412;2023-02-26T05:21:23;3.10;;;1.70;;
67372;SDS011;54257;54.496;18.412;2023-02-26T05:23:50;3.20;;;1.10;;
67372;SDS011;54257;54.496;18.412;2023-02-26T05:26:17;5.50;;;1.60;;
67372;SDS011;54257;54.496;18.412;2023-02-26T05:28:44;2.70;;;1.00;;
67372;SDS011;54257;54.496;18.412;2023-02-26T05:31:12;1.80;;;1.20;;
67372;SDS011;54257;54.496;18.412;2023-02-26T05:33:39;2.50;;;0.90;;
67372;SDS011;54257;54.496;18.412;2023-02-26T05:36:07;1.90;;;1.20;;
67372;SDS011;54257;54.496;18.412;2023-02-26T05:38:34;2.50;;;1.50;;
67372;SDS011;54257;54.496;18.412;2023-02-26T05:41:02;3.10;;;1.50;;
67372;SDS011;54257;54.496;18.412;2023-02-26T05:43:29;3.10;;;1.30;;
67372;SDS011;54257;54.496;18.412;2023-02-26T05:45:56;4.50;;;1.70;;
67372;SDS011;54257;54.496;18.412;2023-02-26T05:48:23;3.70;;;1.20;;
67372;SDS011;54257;54.496;18.412;2023-02-26T05:50:50;3.00;;;1.20;;
67372;SDS011;54257;54.496;18.412;2023-02-26T05:53:18;2.70;;;1.70;;
67372;SDS011;54257;54.496;18.412;2023-02-26T05:55:45;5.70;;;1.50;;
67372;SDS011;54257;54.496;18.412;2023-02-26T05:58:12;4.10;;;1.50;;
67372;SDS011;54257;54.496;18.412;2023-02-26T06:00:39;3.30;;;1.20;;
67372;SDS011;54257;54.496;18.412;2023-02-26T06:03:06;1.60;;;1.20;;
67372;SDS011;54257;54.496;18.412;2023-02-26T06:05:33;2.60;;;1.40;;
67372;SDS011;54257;54.496;18.412;2023-02-26T06:08:02;3.90;;;1.40;;
67372;SDS011;54257;54.496;18.412;2023-02-26T06:10:30;2.60;;;1.40;;
67372;SDS011;54257;54.496;18.412;2023-02-26T06:12:57;3.20;;;1.50;;
67372;SDS011;54257;54.496;18.412;2023-02-26T06:15:24;2.80;;;1.30;;
67372;SDS011;54257;54.496;18.412;2023-02-26T06:17:51;2.40;;;1.50;;
67372;SDS011;54257;54.496;18.412;2023-02-26T06:20:18;4.10;;;1.70;;
67372;SDS011;54257;54.496;18.412;2023-02-26T06:22:45;1.90;;;1.20;;
67372;SDS011;54257;54.496;18.412;2023-02-26T06:25:12;6.70;;;2.20;;
67372;SDS011;54257;54.496;18.412;2023-02-26T06:27:39;5.10;;;1.50;;
67372;SDS011;54257;54.496;18.412;2023-02-26T06:30:06;5.00;;;1.80;;
67372;SDS011;54257;54.496;18.412;2023-02-26T06:32:34;3.60;;;1.70;;
67372;SDS011;54257;54.496;18.412;2023-02-26T06:35:01;3.50;;;1.50;;
67372;SDS011;54257;54.496;18.412;2023-02-26T06:37:28;2.50;;;1.00;;
67372;SDS011;54257;54.496;18.412;2023-02-26T06:39:55;2.50;;;1.10;;
67372;SDS011;54257;54.496;18.412;2023-02-26T06:42:22;3.40;;;1.70;;
67372;SDS011;54257;54.496;18.412;2023-02-26T06:44:49;4.20;;;1.50;;
67372;SDS011;54257;54.496;18.412;2023-02-26T06:47:15;4.90;;;2.20;;
67372;SDS011;54257;54.496;18.412;2023-02-26T06:49:42;4.40;;;1.30;;
67372;SDS011;54257;54.496;18.412;2023-02-26T06:52:09;1.90;;;1.00;;
67372;SDS011;54257;54.496;18.412;2023-02-26T06:54:36;5.00;;;1.20;;
67372;SDS011;54257;54.496;18.412;2023-02-26T06:57:03;4.00;;;1.10;;
67372;SDS011;54257;54.496;18.412;2023-02-26T06:59:30;2.10;;;1.50;;
67372;SDS011;54257;54.496;18.412;2023-02-26T07:01:57;2.20;;;1.30;;
67372;SDS011;54257;54.496;18.412;2023-02-26T07:04:24;2.80;;;1.20;;
67372;SDS011;54257;54.496;18.412;2023-02-26T07:06:51;2.60;;;1.10;;
67372;SDS011;54257;54.496;18.412;2023-02-26T07:09:18;2.00;;;1.20;;
67372;SDS011;54257;54.496;18.412;2023-02-26T07:11:47;4.10;;;1.40;;
67372;SDS011;54257;54.496;18.412;2023-02-26T07:14:14;1.30;;;1.00;;
67372;SDS011;54257;54.496;18.412;2023-02-26T07:16:42;2.70;;;1.30;;
67372;SDS011;54257;54.496;18.412;2023-02-26T07:19:09;2.60;;;1.40;;
67372;SDS011;54257;54.496;18.412;2023-02-26T07:21:38;5.00;;;1.50;;
67372;SDS011;54257;54.496;18.412;2023-02-26T07:24:05;3.20;;;1.40;;
67372;SDS011;54257;54.496;18.412;2023-02-26T07:26:32;1.40;;;1.00;;
67372;SDS011;54257;54.496;18.412;2023-02-26T07:28:59;3.40;;;1.20;;
67372;SDS011;54257;54.496;18.412;2023-02-26T07:31:26;3.10;;;1.10;;
67372;SDS011;54257;54.496;18.412;2023-02-26T07:33:53;5.70;;;2.10;;
67372;SDS011;54257;54.496;18.412;2023-02-26T07:36:20;3.50;;;1.60;;
67372;SDS011;54257;54.496;18.412;2023-02-26T07:38:47;2.70;;;1.40;;
67372;SDS011;54257;54.496;18.412;2023-02-26T07:41:15;3.50;;;1.40;;
67372;SDS011;54257;54.496;18.412;2023-02-26T07:43:42;1.90;;;1.20;;
67372;SDS011;54257;54.496;18.412;2023-02-26T07:46:09;1.80;;;1.20;;
67372;SDS011;54257;54.496;18.412;2023-02-26T07:48:36;4.20;;;1.70;;
67372;SDS011;54257;54.496;18.412;2023-02-26T07:51:03;4.50;;;1.90;;
67372;SDS011;54257;54.496;18.412;2023-02-26T07:53:33;5.30;;;2.00;;
67372;SDS011;54257;54.496;18.412;2023-02-26T07:56:00;1.90;;;1.20;;
67372;SDS011;54257;54.496;18.412;2023-02-26T07:58:27;4.50;;;1.60;;
67372;SDS011;54257;54.496;18.412;2023-02-26T08:00:55;2.70;;;1.40;;
67372;SDS011;54257;54.496;18.412;2023-02-26T08:03:23;2.30;;;1.30;;
67372;SDS011;54257;54.496;18.412;2023-02-26T08:05:50;5.80;;;2.10;;
67372;SDS011;54257;54.496;18.412;2023-02-26T08:08:17;4.40;;;2.20;;
67372;SDS011;54257;54.496;18.412;2023-02-26T08:10:45;6.20;;;2.60;;
67372;SDS011;54257;54.496;18.412;2023-02-26T08:13:11;5.10;;;2.30;;
67372;SDS011;54257;54.496;18.412;2023-02-26T08:15:38;5.20;;;2.80;;
67372;SDS011;54257;54.496;18.412;2023-02-26T08:18:10;3.70;;;2.10;;
67372;SDS011;54257;54.496;18.412;2023-02-26T08:20:37;4.40;;;2.70;;
67372;SDS011;54257;54.496;18.412;2023-02-26T08:23:04;3.10;;;1.70;;
67372;SDS011;54257;54.496;18.412;2023-02-26T08:25:31;3.10;;;1.80;;
67372;SDS011;54257;54.496;18.412;2023-02-26T08:27:57;6.60;;;2.50;;
67372;SDS011;54257;54.496;18.412;2023-02-26T08:30:24;3.80;;;2.10;;
67372;SDS011;54257;54.496;18.412;2023-02-26T08:32:51;3.20;;;1.70;;
67372;SDS011;54257;54.496;18.412;2023-02-26T08:35:18;2.30;;;1.50;;
67372;SDS011;54257;54.496;18.412;2023-02-26T08:37:45;2.00;;;1.20;;
67372;SDS011;54257;54.496;18.412;2023-02-26T08:40:12;3.40;;;1.40;;
67372;SDS011;54257;54.496;18.412;2023-02-26T08:42:39;2.30;;;1.00;;
67372;SDS011;54257;54.496;18.412;2023-02-26T08:45:06;1.80;;;0.80;;
67372;SDS011;54257;54.496;18.412;2023-02-26T08:47:34;2.20;;;1.20;;
67372;SDS011;54257;54.496;18.412;2023-02-26T08:50:02;2.10;;;1.70;;
67372;SDS011;54257;54.496;18.412;2023-02-26T08:52:30;4.10;;;1.50;;
67372;SDS011;54257;54.496;18.412;2023-02-26T08:54:57;2.20;;;1.00;;
67372;SDS011;54257;54.496;18.412;2023-02-26T08:57:23;4.70;;;1.10;;
67372;SDS011;54257;54.496;18.412;2023-02-26T08:59:50;4.60;;;1.60;;
67372;SDS011;54257;54.496;18.412;2023-02-26T09:02:17;2.70;;;1.30;;
67372;SDS011;54257;54.496;18.412;2023-02-26T09:04:44;1.90;;;1.50;;
67372;SDS011;54257;54.496;18.412;2023-02-26T09:07:11;6.10;;;2.00;;
67372;SDS011;54257;54.496;18.412;2023-02-26T09:09:38;2.10;;;0.90;;
67372;SDS011;54257;54.496;18.412;2023-02-26T09:12:06;4.90;;;1.40;;
67372;SDS011;54257;54.496;18.412;2023-02-26T09:14:33;2.40;;;1.30;;
67372;SDS011;54257;54.496;18.412;2023-02-26T09:17:00;2.50;;;1.20;;
67372;SDS011;54257;54.496;18.412;2023-02-26T09:19:27;2.50;;;1.30;;
67372;SDS011;54257;54.496;18.412;2023-02-26T09:21:54;4.00;;;1.60;;
67372;SDS011;54257;54.496;18.412;2023-02-26T09:24:21;3.30;;;1.40;;
67372;SDS011;54257;54.496;18.412;2023-02-26T09:26:48;6.60;;;1.80;;
67372;SDS011;54257;54.496;18.412;2023-02-26T09:29:15;4.50;;;2.20;;
67372;SDS011;54257;54.496;18.412;2023-02-26T09:31:42;5.60;;;2.90;;
67372;SDS011;54257;54.496;18.412;2023-02-26T09:34:09;5.20;;;3.10;;
67372;SDS011;54257;54.496;18.412;2023-02-26T09:36:36;6.80;;;2.60;;
67372;SDS011;54257;54.496;18.412;2023-02-26T09:39:04;4.50;;;2.40;;
67372;SDS011;54257;54.496;18.412;2023-02-26T09:41:33;7.50;;;2.40;;
67372;SDS011;54257;54.496;18.412;2023-02-26T09:46:54;6.80;;;3.00;;
67372;SDS011;54257;54.496;18.412;2023-02-26T09:52:25;8.10;;;2.50;;
67372;SDS011;54257;54.496;18.412;2023-02-26T09:54:55;3.30;;;1.60;;
67372;SDS011;54257;54.496;18.412;2023-02-26T09:57:32;3.80;;;2.20;;
67372;SDS011;54257;54.496;18.412;2023-02-26T10:00:03;5.80;;;2.80;;
67372;SDS011;54257;54.496;18.412;2023-02-26T10:02:55;5.60;;;2.10;;
67372;SDS011;54257;54.496;18.412;2023-02-26T10:05:39;5.60;;;2.20;;
67372;SDS011;54257;54.496;18.412;2023-02-26T10:08:17;3.70;;;1.60;;
67372;SDS011;54257;54.496;18.412;2023-02-26T10:10:59;4.20;;;1.50;;
67372;SDS011;54257;54.496;18.412;2023-02-26T10:16:04;4.10;;;1.90;;
67372;SDS011;54257;54.496;18.412;2023-02-26T10:18:36;5.40;;;1.50;;
67372;SDS011;54257;54.496;18.412;2023-02-26T10:21:21;3.70;;;1.70;;
67372;SDS011;54257;54.496;18.412;2023-02-26T10:23:54;3.40;;;1.50;;
67372;SDS011;54257;54.496;18.412;2023-02-26T10:26:32;2.90;;;1.50;;
67372;SDS011;54257;54.496;18.412;2023-02-26T10:29:23;4.00;;;1.50;;
67372;SDS011;54257;54.496;18.412;2023-02-26T10:34:50;3.60;;;1.50;;
67372;SDS011;54257;54.496;18.412;2023-02-26T10:42:55;2.70;;;1.90;;
67372;SDS011;54257;54.496;18.412;2023-02-26T10:48:12;4.60;;;2.40;;
67372;SDS011;54257;54.496;18.412;2023-02-26T10:50:48;3.70;;;2.70;;
67372;SDS011;54257;54.496;18.412;2023-02-26T10:53:19;3.80;;;1.70;;
67372;SDS011;54257;54.496;18.412;2023-02-26T10:56:30;3.50;;;1.20;;
67372;SDS011;54257;54.496;18.412;2023-02-26T11:01:15;4.00;;;2.10;;
67372;SDS011;54257;54.496;18.412;2023-02-26T11:03:46;3.40;;;2.40;;
67372;SDS011;54257;54.496;18.412;2023-02-26T11:06:20;6.00;;;2.80;;
67372;SDS011;54257;54.496;18.412;2023-02-26T11:08:51;5.30;;;2.00;;
67372;SDS011;54257;54.496;18.412;2023-02-26T11:11:38;5.60;;;1.80;;
67372;SDS011;54257;54.496;18.412;2023-02-26T11:14:05;2.60;;;1.30;;
67372;SDS011;54257;54.496;18.412;2023-02-26T11:16:34;4.90;;;1.70;;
67372;SDS011;54257;54.496;18.412;2023-02-26T11:19:06;2.10;;;1.30;;
67372;SDS011;54257;54.496;18.412;2023-02-26T11:21:38;2.80;;;1.30;;
67372;SDS011;54257;54.496;18.412;2023-02-26T11:24:10;4.80;;;1.30;;
67372;SDS011;54257;54.496;18.412;2023-02-26T11:26:58;2.10;;;1.30;;
67372;SDS011;54257;54.496;18.412;2023-02-26T11:29:36;6.80;;;2.70;;
67372;SDS011;54257;54.496;18.412;2023-02-26T11:32:09;2.80;;;1.40;;
67372;SDS011;54257;54.496;18.412;2023-02-26T11:34:49;4.10;;;1.50;;
67372;SDS011;54257;54.496;18.412;2023-02-26T11:38:01;2.60;;;1.10;;
67372;SDS011;54257;54.496;18.412;2023-02-26T11:40:30;1.70;;;1.30;;
67372;SDS011;54257;54.496;18.412;2023-02-26T11:43:15;4.70;;;1.60;;
67372;SDS011;54257;54.496;18.412;2023-02-26T11:45:46;3.20;;;1.50;;
67372;SDS011;54257;54.496;18.412;2023-02-26T11:48:19;3.00;;;1.30;;
67372;SDS011;54257;54.496;18.412;2023-02-26T11:50:51;3.20;;;1.10;;
67372;SDS011;54257;54.496;18.412;2023-02-26T11:56:01;2.50;;;1.20;;
67372;SDS011;54257;54.496;18.412;2023-02-26T11:58:38;3.70;;;2.00;;
67372;SDS011;54257;54.496;18.412;2023-02-26T12:01:07;2.50;;;1.30;;
67372;SDS011;54257;54.496;18.412;2023-02-26T12:03:37;1.90;;;1.30;;
67372;SDS011;54257;54.496;18.412;2023-02-26T12:06:09;2.80;;;1.20;;
67372;SDS011;54257;54.496;18.412;2023-02-26T12:08:43;2.20;;;0.90;;
67372;SDS011;54257;54.496;18.412;2023-02-26T12:11:22;1.10;;;0.70;;
67372;SDS011;54257;54.496;18.412;2023-02-26T12:20:42;2.30;;;1.40;;
67372;SDS011;54257;54.496;18.412;2023-02-26T12:25:53;2.70;;;1.70;;
67372;SDS011;54257;54.496;18.412;2023-02-26T12:34:22;4.50;;;2.20;;
67372;SDS011;54257;54.496;18.412;2023-02-26T12:39:48;3.70;;;1.30;;
67372;SDS011;54257;54.496;18.412;2023-02-26T12:42:52;4.00;;;2.40;;
67372;SDS011;54257;54.496;18.412;2023-02-26T12:51:40;2.50;;;1.60;;
67372;SDS011;54257;54.496;18.412;2023-02-26T12:59:56;3.00;;;1.70;;
67372;SDS011;54257;54.496;18.412;2023-02-26T13:08:51;2.20;;;1.40;;
67372;SDS011;54257;54.496;18.412;2023-02-26T13:14:46;5.30;;;3.30;;
67372;SDS011;54257;54.496;18.412;2023-02-26T13:17:50;6.90;;;3.50;;
67372;SDS011;54257;54.496;18.412;2023-02-26T13:20:27;2.60;;;1.50;;
67372;SDS011;54257;54.496;18.412;2023-02-26T13:22:56;3.90;;;1.50;;
67372;SDS011;54257;54.496;18.412;2023-02-26T13:25:40;2.80;;;1.20;;
67372;SDS011;54257;54.496;18.412;2023-02-26T13:33:54;2.80;;;2.10;;
67372;SDS011;54257;54.496;18.412;2023-02-26T13:36:27;3.60;;;1.90;;
67372;SDS011;54257;54.496;18.412;2023-02-26T13:41:39;2.10;;;1.10;;
67372;SDS011;54257;54.496;18.412;2023-02-26T13:52:51;3.40;;;1.90;;
67372;SDS011;54257;54.496;18.412;2023-02-26T13:55:36;3.70;;;1.20;;
67372;SDS011;54257;54.496;18.412;2023-02-26T14:00:56;4.30;;;1.30;;
67372;SDS011;54257;54.496;18.412;2023-02-26T14:03:31;2.00;;;1.20;;
67372;SDS011;54257;54.496;18.412;2023-02-26T14:08:55;2.20;;;1.70;;
67372;SDS011;54257;54.496;18.412;2023-02-26T14:19:36;2.20;;;1.50;;
67372;SDS011;54257;54.496;18.412;2023-02-26T14:22:18;4.30;;;2.60;;
67372;SDS011;54257;54.496;18.412;2023-02-26T14:27:48;2.10;;;1.40;;
67372;SDS011;54257;54.496;18.412;2023-02-26T14:35:35;1.40;;;1.10;;
67372;SDS011;54257;54.496;18.412;2023-02-26T14:38:08;4.10;;;1.30;;
67372;SDS011;54257;54.496;18.412;2023-02-26T14:40:43;2.90;;;1.70;;
67372;SDS011;54257;54.496;18.412;2023-02-26T14:43:57;2.80;;;1.60;;
67372;SDS011;54257;54.496;18.412;2023-02-26T14:46:06;3.40;;;1.60;;
67372;SDS011;54257;54.496;18.412;2023-02-26T14:48:35;4.20;;;1.90;;
67372;SDS011;54257;54.496;18.412;2023-02-26T14:57:02;2.40;;;1.60;;
67372;SDS011;54257;54.496;18.412;2023-02-26T15:02:44;1.40;;;1.20;;
67372;SDS011;54257;54.496;18.412;2023-02-26T15:16:11;4.10;;;2.00;;
67372;SDS011;54257;54.496;18.412;2023-02-26T15:24:49;4.50;;;2.30;;
67372;SDS011;54257;54.496;18.412;2023-02-26T15:27:17;5.30;;;2.80;;
67372;SDS011;54257;54.496;18.412;2023-02-26T15:29:46;4.50;;;2.20;;
67372;SDS011;54257;54.496;18.412;2023-02-26T15:34:57;2.90;;;2.00;;
67372;SDS011;54257;54.496;18.412;2023-02-26T15:37:41;10.20;;;2.80;;
67372;SDS011;54257;54.496;18.412;2023-02-26T15:40:08;3.80;;;2.70;;
67372;SDS011;54257;54.496;18.412;2023-02-26T15:42:37;4.10;;;2.10;;
67372;SDS011;54257;54.496;18.412;2023-02-26T15:45:19;3.40;;;2.20;;
67372;SDS011;54257;54.496;18.412;2023-02-26T15:48:10;4.20;;;2.70;;
67372;SDS011;54257;54.496;18.412;2023-02-26T15:50:43;4.80;;;2.30;;
67372;SDS011;54257;54.496;18.412;2023-02-26T15:53:17;4.40;;;3.10;;
67372;SDS011;54257;54.496;18.412;2023-02-26T15:55:50;5.80;;;3.50;;
67372;SDS011;54257;54.496;18.412;2023-02-26T15:58:22;6.10;;;2.70;;
67372;SDS011;54257;54.496;18.412;2023-02-26T16:01:06;5.50;;;3.00;;
67372;SDS011;54257;54.496;18.412;2023-02-26T16:03:36;6.20;;;2.80;;
67372;SDS011;54257;54.496;18.412;2023-02-26T16:06:05;5.40;;;3.30;;
67372;SDS011;54257;54.496;18.412;2023-02-26T16:08:36;6.50;;;3.00;;
67372;SDS011;54257;54.496;18.412;2023-02-26T16:11:04;8.60;;;4.20;;
67372;SDS011;54257;54.496;18.412;2023-02-26T16:13:33;5.30;;;3.70;;
67372;SDS011;54257;54.496;18.412;2023-02-26T16:16:05;6.20;;;3.40;;
67372;SDS011;54257;54.496;18.412;2023-02-26T16:21:06;4.00;;;2.30;;
67372;SDS011;54257;54.496;18.412;2023-02-26T16:26:15;5.40;;;3.30;;
67372;SDS011;54257;54.496;18.412;2023-02-26T16:28:46;6.00;;;4.10;;
67372;SDS011;54257;54.496;18.412;2023-02-26T16:31:18;5.00;;;3.80;;
67372;SDS011;54257;54.496;18.412;2023-02-26T16:33:53;24.60;;;14.60;;
67372;SDS011;54257;54.496;18.412;2023-02-26T16:36:28;12.40;;;6.80;;
67372;SDS011;54257;54.496;18.412;2023-02-26T16:41:31;4.60;;;3.20;;
67372;SDS011;54257;54.496;18.412;2023-02-26T16:44:22;4.00;;;2.60;;
67372;SDS011;54257;54.496;18.412;2023-02-26T16:46:57;3.60;;;2.10;;
67372;SDS011;54257;54.496;18.412;2023-02-26T16:49:29;5.10;;;2.60;;
67372;SDS011;54257;54.496;18.412;2023-02-26T16:52:00;5.20;;;3.50;;
67372;SDS011;54257;54.496;18.412;2023-02-26T16:54:31;3.00;;;2.00;;
67372;SDS011;54257;54.496;18.412;2023-02-26T16:57:23;2.90;;;1.90;;
67372;SDS011;54257;54.496;18.412;2023-02-26T16:59:56;2.90;;;1.90;;
67372;SDS011;54257;54.496;18.412;2023-02-26T17:02:28;3.20;;;2.10;;
67372;SDS011;54257;54.496;18.412;2023-02-26T17:05:00;2.40;;;2.00;;
67372;SDS011;54257;54.496;18.412;2023-02-26T17:07:36;3.00;;;1.40;;
67372;SDS011;54257;54.496;18.412;2023-02-26T17:12:49;2.50;;;1.70;;
67372;SDS011;54257;54.496;18.412;2023-02-26T17:15:20;2.60;;;1.60;;
67372;SDS011;54257;54.496;18.412;2023-02-26T17:17:55;3.60;;;2.30;;
67372;SDS011;54257;54.496;18.412;2023-02-26T17:20:23;2.80;;;2.20;;
67372;SDS011;54257;54.496;18.412;2023-02-26T17:22:55;2.30;;;1.60;;
67372;SDS011;54257;54.496;18.412;2023-02-26T17:25:24;3.20;;;1.70;;
67372;SDS011;54257;54.496;18.412;2023-02-26T17:27:55;2.60;;;1.80;;
67372;SDS011;54257;54.496;18.412;2023-02-26T17:30:23;3.30;;;2.10;;
67372;SDS011;54257;54.496;18.412;2023-02-26T17:32:55;2.00;;;1.70;;
67372;SDS011;54257;54.496;18.412;2023-02-26T17:35:22;3.00;;;1.90;;
67372;SDS011;54257;54.496;18.412;2023-02-26T17:37:49;2.70;;;1.90;;
67372;SDS011;54257;54.496;18.412;2023-02-26T17:40:22;4.60;;;2.00;;
67372;SDS011;54257;54.496;18.412;2023-02-26T17:42:52;4.00;;;2.80;;
67372;SDS011;54257;54.496;18.412;2023-02-26T17:45:22;2.60;;;1.80;;
67372;SDS011;54257;54.496;18.412;2023-02-26T17:47:52;3.60;;;1.60;;
67372;SDS011;54257;54.496;18.412;2023-02-26T17:50:23;4.30;;;2.20;;
67372;SDS011;54257;54.496;18.412;2023-02-26T17:52:58;2.00;;;1.70;;
67372;SDS011;54257;54.496;18.412;2023-02-26T17:55:28;4.00;;;2.00;;
67372;SDS011;54257;54.496;18.412;2023-02-26T17:57:57;3.30;;;1.60;;
67372;SDS011;54257;54.496;18.412;2023-02-26T18:00:25;2.80;;;1.80;;
67372;SDS011;54257;54.496;18.412;2023-02-26T18:02:52;5.20;;;2.20;;
67372;SDS011;54257;54.496;18.412;2023-02-26T18:07:48;2.90;;;2.10;;
67372;SDS011;54257;54.496;18.412;2023-02-26T18:10:17;4.40;;;2.20;;